sensor_id;sensor_type;location;lat;lon;timestamp;P1;durP1;ratioP1;P2;durP2;ratioP2
26951;SDS011;14507;52.418;13.398;2024-02-26T00:02:19;27.95;;;13.95;;
26951;SDS011;14507;52.418;13.398;2024-02-26T00:04:44;28.70;;;14.60;;
26951;SDS011;14507;52.418;13.398;2024-02-26T00:07:10;23.83;;;12.98;;
26951;SDS011;14507;52.418;13.398;2024-02-26T00:09:36;26.05;;;13.90;;
26951;SDS011;14507;52.418;13.398;2024-02-26T00:12:02;26.00;;;13.77;;
26951;SDS011;14507;52.418;13.398;2024-02-26T00:14:31;27.63;;;12.82;;
26951;SDS011;14507;52.418;13.398;2024-02-26T00:16:57;27.67;;;13.50;;
26951;SDS011;14507;52.418;13.398;2024-02-26T00:19:23;25.38;;;13.05;;
26951;SDS011;14507;52.418;13.398;2024-02-26T00:21:48;25.88;;;12.88;;
26951;SDS011;14507;52.418;13.398;2024-02-26T00:24:14;23.67;;;13.05;;
26951;SDS011;14507;52.418;13.398;2024-02-26T00:26:39;26.63;;;14.02;;
26951;SDS011;14507;52.418;13.398;2024-02-26T00:29:05;26.50;;;12.23;;
26951;SDS011;14507;52.418;13.398;2024-02-26T00:31:31;25.95;;;12.93;;
26951;SDS011;14507;52.418;13.398;2024-02-26T00:33:56;26.38;;;12.50;;
26951;SDS011;14507;52.418;13.398;2024-02-26T00:36:22;23.92;;;13.10;;
26951;SDS011;14507;52.418;13.398;2024-02-26T00:38:48;21.48;;;12.93;;
26951;SDS011;14507;52.418;13.398;2024-02-26T00:41:19;24.58;;;13.48;;
26951;SDS011;14507;52.418;13.398;2024-02-26T00:43:45;24.25;;;13.00;;
26951;SDS011;14507;52.418;13.398;2024-02-26T00:46:11;24.85;;;12.55;;
26951;SDS011;14507;52.418;13.398;2024-02-26T00:48:37;24.83;;;13.65;;
26951;SDS011;14507;52.418;13.398;2024-02-26T00:51:03;24.27;;;12.15;;
26951;SDS011;14507;52.418;13.398;2024-02-26T00:53:33;27.08;;;13.95;;
26951;SDS011;14507;52.418;13.398;2024-02-26T00:55:59;23.05;;;13.77;;
26951;SDS011;14507;52.418;13.398;2024-02-26T00:58:25;26.38;;;12.75;;
26951;SDS011;14507;52.418;13.398;2024-02-26T01:00:51;31.02;;;13.57;;
26951;SDS011;14507;52.418;13.398;2024-02-26T01:03:19;27.17;;;13.10;;
26951;SDS011;14507;52.418;13.398;2024-02-26T01:05:45;30.52;;;12.85;;
26951;SDS011;14507;52.418;13.398;2024-02-26T01:08:11;26.00;;;13.27;;
26951;SDS011;14507;52.418;13.398;2024-02-26T01:10:36;28.92;;;14.50;;
26951;SDS011;14507;52.418;13.398;2024-02-26T01:13:02;30.67;;;13.63;;
26951;SDS011;14507;52.418;13.398;2024-02-26T01:15:28;28.10;;;14.65;;
26951;SDS011;14507;52.418;13.398;2024-02-26T01:17:53;27.08;;;13.85;;
26951;SDS011;14507;52.418;13.398;2024-02-26T01:20:19;23.38;;;13.20;;
26951;SDS011;14507;52.418;13.398;2024-02-26T01:22:45;25.05;;;13.18;;
26951;SDS011;14507;52.418;13.398;2024-02-26T01:25:12;26.85;;;13.55;;
26951;SDS011;14507;52.418;13.398;2024-02-26T01:27:40;25.10;;;14.10;;
26951;SDS011;14507;52.418;13.398;2024-02-26T01:30:07;26.55;;;13.55;;
26951;SDS011;14507;52.418;13.398;2024-02-26T01:32:33;28.27;;;14.77;;
26951;SDS011;14507;52.418;13.398;2024-02-26T01:35:01;28.08;;;14.18;;
26951;SDS011;14507;52.418;13.398;2024-02-26T01:37:28;26.50;;;14.07;;
26951;SDS011;14507;52.418;13.398;2024-02-26T01:39:55;26.83;;;14.48;;
26951;SDS011;14507;52.418;13.398;2024-02-26T01:42:20;24.45;;;12.90;;
26951;SDS011;14507;52.418;13.398;2024-02-26T01:44:46;29.08;;;14.27;;
26951;SDS011;14507;52.418;13.398;2024-02-26T01:47:12;25.70;;;13.38;;
26951;SDS011;14507;52.418;13.398;2024-02-26T01:49:38;26.15;;;13.27;;
26951;SDS011;14507;52.418;13.398;2024-02-26T01:52:06;26.40;;;13.07;;
26951;SDS011;14507;52.418;13.398;2024-02-26T01:54:36;24.35;;;13.57;;
26951;SDS011;14507;52.418;13.398;2024-02-26T01:57:03;23.70;;;12.38;;
26951;SDS011;14507;52.418;13.398;2024-02-26T01:59:30;22.27;;;12.70;;
26951;SDS011;14507;52.418;13.398;2024-02-26T02:01:57;25.20;;;12.45;;
26951;SDS011;14507;52.418;13.398;2024-02-26T02:04:26;27.02;;;13.52;;
26951;SDS011;14507;52.418;13.398;2024-02-26T02:06:52;23.50;;;12.88;;
26951;SDS011;14507;52.418;13.398;2024-02-26T02:09:19;21.60;;;11.93;;
26951;SDS011;14507;52.418;13.398;2024-02-26T02:11:46;21.55;;;12.88;;
26951;SDS011;14507;52.418;13.398;2024-02-26T02:14:13;25.83;;;13.13;;
26951;SDS011;14507;52.418;13.398;2024-02-26T02:16:39;26.10;;;12.55;;
26951;SDS011;14507;52.418;13.398;2024-02-26T02:19:04;23.33;;;12.68;;
26951;SDS011;14507;52.418;13.398;2024-02-26T02:21:30;21.08;;;11.73;;
26951;SDS011;14507;52.418;13.398;2024-02-26T02:23:55;22.17;;;12.93;;
26951;SDS011;14507;52.418;13.398;2024-02-26T02:26:21;22.75;;;11.60;;
26951;SDS011;14507;52.418;13.398;2024-02-26T02:28:47;21.88;;;12.02;;
26951;SDS011;14507;52.418;13.398;2024-02-26T02:31:14;22.00;;;11.65;;
26951;SDS011;14507;52.418;13.398;2024-02-26T02:33:41;20.95;;;11.43;;
26951;SDS011;14507;52.418;13.398;2024-02-26T02:36:07;23.05;;;12.80;;
26951;SDS011;14507;52.418;13.398;2024-02-26T02:38:35;20.05;;;11.82;;
26951;SDS011;14507;52.418;13.398;2024-02-26T02:41:14;20.55;;;12.20;;
26951;SDS011;14507;52.418;13.398;2024-02-26T02:43:39;27.60;;;12.45;;
26951;SDS011;14507;52.418;13.398;2024-02-26T02:46:05;21.58;;;11.60;;
26951;SDS011;14507;52.418;13.398;2024-02-26T02:48:31;20.50;;;11.68;;
26951;SDS011;14507;52.418;13.398;2024-02-26T02:50:56;23.27;;;13.07;;
26951;SDS011;14507;52.418;13.398;2024-02-26T02:53:22;20.20;;;12.15;;
26951;SDS011;14507;52.418;13.398;2024-02-26T02:55:47;21.27;;;11.88;;
26951;SDS011;14507;52.418;13.398;2024-02-26T02:58:13;21.60;;;12.23;;
26951;SDS011;14507;52.418;13.398;2024-02-26T03:00:38;19.52;;;11.10;;
26951;SDS011;14507;52.418;13.398;2024-02-26T03:03:04;19.15;;;10.82;;
26951;SDS011;14507;52.418;13.398;2024-02-26T03:05:30;20.48;;;10.75;;
26951;SDS011;14507;52.418;13.398;2024-02-26T03:07:55;20.67;;;10.70;;
26951;SDS011;14507;52.418;13.398;2024-02-26T03:10:21;19.58;;;11.15;;
26951;SDS011;14507;52.418;13.398;2024-02-26T03:12:46;19.92;;;11.93;;
26951;SDS011;14507;52.418;13.398;2024-02-26T03:15:12;18.60;;;10.73;;
26951;SDS011;14507;52.418;13.398;2024-02-26T03:17:38;25.08;;;11.23;;
26951;SDS011;14507;52.418;13.398;2024-02-26T03:20:03;18.80;;;11.45;;
26951;SDS011;14507;52.418;13.398;2024-02-26T03:22:30;21.85;;;11.23;;
26951;SDS011;14507;52.418;13.398;2024-02-26T03:24:56;20.42;;;11.15;;
26951;SDS011;14507;52.418;13.398;2024-02-26T03:27:22;19.13;;;11.07;;
26951;SDS011;14507;52.418;13.398;2024-02-26T03:29:48;16.60;;;10.88;;
26951;SDS011;14507;52.418;13.398;2024-02-26T03:32:14;18.25;;;10.88;;
26951;SDS011;14507;52.418;13.398;2024-02-26T03:34:39;17.92;;;10.50;;
26951;SDS011;14507;52.418;13.398;2024-02-26T03:37:05;19.13;;;10.90;;
26951;SDS011;14507;52.418;13.398;2024-02-26T03:39:32;22.93;;;12.10;;
26951;SDS011;14507;52.418;13.398;2024-02-26T03:41:58;18.08;;;10.95;;
26951;SDS011;14507;52.418;13.398;2024-02-26T03:44:23;22.83;;;10.35;;
26951;SDS011;14507;52.418;13.398;2024-02-26T03:46:49;21.15;;;10.93;;
26951;SDS011;14507;52.418;13.398;2024-02-26T03:49:15;18.27;;;11.32;;
26951;SDS011;14507;52.418;13.398;2024-02-26T03:51:41;18.20;;;10.82;;
26951;SDS011;14507;52.418;13.398;2024-02-26T03:54:07;18.92;;;10.15;;
26951;SDS011;14507;52.418;13.398;2024-02-26T03:56:32;18.88;;;10.50;;
26951;SDS011;14507;52.418;13.398;2024-02-26T03:58:58;17.55;;;10.10;;
26951;SDS011;14507;52.418;13.398;2024-02-26T04:01:25;15.13;;;10.05;;
26951;SDS011;14507;52.418;13.398;2024-02-26T04:03:50;19.85;;;10.13;;
26951;SDS011;14507;52.418;13.398;2024-02-26T04:06:17;14.45;;;9.52;;
26951;SDS011;14507;52.418;13.398;2024-02-26T04:11:14;17.08;;;9.48;;
26951;SDS011;14507;52.418;13.398;2024-02-26T04:13:43;18.95;;;9.70;;
26951;SDS011;14507;52.418;13.398;2024-02-26T04:16:11;16.30;;;10.27;;
26951;SDS011;14507;52.418;13.398;2024-02-26T04:18:37;15.75;;;9.23;;
26951;SDS011;14507;52.418;13.398;2024-02-26T04:21:03;16.27;;;9.48;;
26951;SDS011;14507;52.418;13.398;2024-02-26T04:23:30;20.52;;;9.63;;
26951;SDS011;14507;52.418;13.398;2024-02-26T04:25:56;16.02;;;10.20;;
26951;SDS011;14507;52.418;13.398;2024-02-26T04:28:21;15.23;;;9.13;;
26951;SDS011;14507;52.418;13.398;2024-02-26T04:30:47;17.90;;;10.27;;
26951;SDS011;14507;52.418;13.398;2024-02-26T04:33:13;14.15;;;9.30;;
26951;SDS011;14507;52.418;13.398;2024-02-26T04:35:39;16.13;;;9.88;;
26951;SDS011;14507;52.418;13.398;2024-02-26T04:38:04;16.17;;;9.77;;
26951;SDS011;14507;52.418;13.398;2024-02-26T04:40:30;18.17;;;10.02;;
26951;SDS011;14507;52.418;13.398;2024-02-26T04:42:56;15.75;;;9.55;;
26951;SDS011;14507;52.418;13.398;2024-02-26T04:45:22;17.05;;;10.32;;
26951;SDS011;14507;52.418;13.398;2024-02-26T04:47:48;19.60;;;10.68;;
26951;SDS011;14507;52.418;13.398;2024-02-26T04:50:13;17.92;;;10.10;;
26951;SDS011;14507;52.418;13.398;2024-02-26T04:52:42;15.70;;;10.13;;
26951;SDS011;14507;52.418;13.398;2024-02-26T04:55:07;17.45;;;10.45;;
26951;SDS011;14507;52.418;13.398;2024-02-26T04:57:33;17.30;;;9.50;;
26951;SDS011;14507;52.418;13.398;2024-02-26T04:59:59;16.02;;;10.32;;
26951;SDS011;14507;52.418;13.398;2024-02-26T05:02:24;19.83;;;11.10;;
26951;SDS011;14507;52.418;13.398;2024-02-26T05:04:50;20.42;;;11.07;;
26951;SDS011;14507;52.418;13.398;2024-02-26T05:07:15;17.20;;;9.77;;
26951;SDS011;14507;52.418;13.398;2024-02-26T05:09:44;17.85;;;10.77;;
26951;SDS011;14507;52.418;13.398;2024-02-26T05:12:10;18.38;;;10.43;;
26951;SDS011;14507;52.418;13.398;2024-02-26T05:14:35;18.55;;;11.15;;
26951;SDS011;14507;52.418;13.398;2024-02-26T05:17:01;15.70;;;10.55;;
26951;SDS011;14507;52.418;13.398;2024-02-26T05:19:31;17.77;;;10.93;;
26951;SDS011;14507;52.418;13.398;2024-02-26T05:21:56;19.13;;;10.45;;
26951;SDS011;14507;52.418;13.398;2024-02-26T05:24:22;18.10;;;10.75;;
26951;SDS011;14507;52.418;13.398;2024-02-26T05:26:47;18.92;;;10.98;;
26951;SDS011;14507;52.418;13.398;2024-02-26T05:29:14;18.67;;;11.02;;
26951;SDS011;14507;52.418;13.398;2024-02-26T05:31:41;15.50;;;11.13;;
26951;SDS011;14507;52.418;13.398;2024-02-26T05:36:36;16.42;;;10.70;;
26951;SDS011;14507;52.418;13.398;2024-02-26T05:39:02;18.33;;;10.70;;
26951;SDS011;14507;52.418;13.398;2024-02-26T05:41:28;20.52;;;11.35;;
26951;SDS011;14507;52.418;13.398;2024-02-26T05:43:54;17.70;;;11.10;;
26951;SDS011;14507;52.418;13.398;2024-02-26T05:46:20;19.08;;;11.57;;
26951;SDS011;14507;52.418;13.398;2024-02-26T05:48:47;19.20;;;11.85;;
26951;SDS011;14507;52.418;13.398;2024-02-26T05:51:14;21.52;;;13.13;;
26951;SDS011;14507;52.418;13.398;2024-02-26T05:53:40;23.67;;;12.48;;
26951;SDS011;14507;52.418;13.398;2024-02-26T05:56:06;19.90;;;12.27;;
26951;SDS011;14507;52.418;13.398;2024-02-26T05:58:32;24.58;;;13.60;;
26951;SDS011;14507;52.418;13.398;2024-02-26T06:00:57;23.67;;;12.85;;
26951;SDS011;14507;52.418;13.398;2024-02-26T06:03:25;23.77;;;13.35;;
26951;SDS011;14507;52.418;13.398;2024-02-26T06:05:50;20.27;;;13.13;;
26951;SDS011;14507;52.418;13.398;2024-02-26T06:08:16;21.10;;;13.10;;
26951;SDS011;14507;52.418;13.398;2024-02-26T06:10:42;24.85;;;13.45;;
26951;SDS011;14507;52.418;13.398;2024-02-26T06:13:07;25.85;;;13.90;;
26951;SDS011;14507;52.418;13.398;2024-02-26T06:15:33;27.67;;;13.95;;
26951;SDS011;14507;52.418;13.398;2024-02-26T06:17:59;24.52;;;14.35;;
26951;SDS011;14507;52.418;13.398;2024-02-26T06:20:24;27.05;;;15.50;;
26951;SDS011;14507;52.418;13.398;2024-02-26T06:22:50;24.58;;;15.02;;
26951;SDS011;14507;52.418;13.398;2024-02-26T06:25:16;27.33;;;15.30;;
26951;SDS011;14507;52.418;13.398;2024-02-26T06:27:41;31.83;;;16.50;;
26951;SDS011;14507;52.418;13.398;2024-02-26T06:30:07;26.95;;;15.93;;
26951;SDS011;14507;52.418;13.398;2024-02-26T06:32:39;26.75;;;16.08;;
26951;SDS011;14507;52.418;13.398;2024-02-26T06:35:04;27.25;;;15.82;;
26951;SDS011;14507;52.418;13.398;2024-02-26T06:37:33;32.58;;;16.30;;
26951;SDS011;14507;52.418;13.398;2024-02-26T06:39:58;26.58;;;16.30;;
26951;SDS011;14507;52.418;13.398;2024-02-26T06:42:29;35.67;;;17.45;;
26951;SDS011;14507;52.418;13.398;2024-02-26T06:44:55;28.23;;;15.98;;
26951;SDS011;14507;52.418;13.398;2024-02-26T06:47:21;27.27;;;15.85;;
26951;SDS011;14507;52.418;13.398;2024-02-26T06:49:47;30.17;;;15.98;;
26951;SDS011;14507;52.418;13.398;2024-02-26T06:52:12;30.33;;;18.20;;
26951;SDS011;14507;52.418;13.398;2024-02-26T06:54:38;34.92;;;20.65;;
26951;SDS011;14507;52.418;13.398;2024-02-26T06:57:03;32.25;;;20.10;;
26951;SDS011;14507;52.418;13.398;2024-02-26T06:59:29;30.15;;;16.02;;
26951;SDS011;14507;52.418;13.398;2024-02-26T07:01:55;24.13;;;13.38;;
26951;SDS011;14507;52.418;13.398;2024-02-26T07:04:20;25.48;;;12.68;;
26951;SDS011;14507;52.418;13.398;2024-02-26T07:06:46;24.35;;;12.18;;
26951;SDS011;14507;52.418;13.398;2024-02-26T07:09:12;20.15;;;11.90;;
26951;SDS011;14507;52.418;13.398;2024-02-26T07:11:38;24.15;;;11.90;;
26951;SDS011;14507;52.418;13.398;2024-02-26T07:14:11;20.58;;;12.52;;
26951;SDS011;14507;52.418;13.398;2024-02-26T07:16:37;21.60;;;12.25;;
26951;SDS011;14507;52.418;13.398;2024-02-26T07:19:03;21.55;;;13.20;;
26951;SDS011;14507;52.418;13.398;2024-02-26T07:21:29;26.40;;;13.77;;
26951;SDS011;14507;52.418;13.398;2024-02-26T07:23:55;25.27;;;13.18;;
26951;SDS011;14507;52.418;13.398;2024-02-26T07:26:21;25.15;;;13.30;;
26951;SDS011;14507;52.418;13.398;2024-02-26T07:28:46;27.17;;;14.93;;
26951;SDS011;14507;52.418;13.398;2024-02-26T07:31:12;24.27;;;14.50;;
26951;SDS011;14507;52.418;13.398;2024-02-26T07:33:38;28.38;;;14.82;;
26951;SDS011;14507;52.418;13.398;2024-02-26T07:36:04;26.60;;;15.65;;
26951;SDS011;14507;52.418;13.398;2024-02-26T07:38:30;27.42;;;15.55;;
26951;SDS011;14507;52.418;13.398;2024-02-26T07:40:55;28.83;;;15.05;;
26951;SDS011;14507;52.418;13.398;2024-02-26T07:43:22;30.70;;;17.55;;
26951;SDS011;14507;52.418;13.398;2024-02-26T07:45:47;31.15;;;16.52;;
26951;SDS011;14507;52.418;13.398;2024-02-26T07:48:13;29.63;;;17.27;;
26951;SDS011;14507;52.418;13.398;2024-02-26T07:50:39;32.58;;;18.85;;
26951;SDS011;14507;52.418;13.398;2024-02-26T07:53:05;36.75;;;16.98;;
26951;SDS011;14507;52.418;13.398;2024-02-26T07:55:31;31.13;;;16.95;;
26951;SDS011;14507;52.418;13.398;2024-02-26T07:57:56;35.60;;;18.58;;
26951;SDS011;14507;52.418;13.398;2024-02-26T08:00:25;36.30;;;18.92;;
26951;SDS011;14507;52.418;13.398;2024-02-26T08:02:51;33.58;;;19.20;;
26951;SDS011;14507;52.418;13.398;2024-02-26T08:05:17;33.08;;;18.65;;
26951;SDS011;14507;52.418;13.398;2024-02-26T08:07:42;39.20;;;18.77;;
26951;SDS011;14507;52.418;13.398;2024-02-26T08:10:08;34.03;;;18.88;;
26951;SDS011;14507;52.418;13.398;2024-02-26T08:12:37;33.83;;;18.33;;
26951;SDS011;14507;52.418;13.398;2024-02-26T08:15:03;36.63;;;19.15;;
26951;SDS011;14507;52.418;13.398;2024-02-26T08:17:30;33.55;;;18.52;;
26951;SDS011;14507;52.418;13.398;2024-02-26T08:19:57;32.20;;;17.92;;
26951;SDS011;14507;52.418;13.398;2024-02-26T08:22:24;29.98;;;18.27;;
26951;SDS011;14507;52.418;13.398;2024-02-26T08:24:49;34.25;;;18.77;;
26951;SDS011;14507;52.418;13.398;2024-02-26T08:27:15;29.30;;;17.58;;
26951;SDS011;14507;52.418;13.398;2024-02-26T08:29:40;28.50;;;16.83;;
26951;SDS011;14507;52.418;13.398;2024-02-26T08:32:06;29.60;;;16.85;;
26951;SDS011;14507;52.418;13.398;2024-02-26T08:34:32;28.00;;;15.30;;
26951;SDS011;14507;52.418;13.398;2024-02-26T08:36:58;27.77;;;15.38;;
26951;SDS011;14507;52.418;13.398;2024-02-26T08:39:23;26.73;;;14.52;;
26951;SDS011;14507;52.418;13.398;2024-02-26T08:41:50;32.10;;;17.65;;
26951;SDS011;14507;52.418;13.398;2024-02-26T08:44:16;28.15;;;16.95;;
26951;SDS011;14507;52.418;13.398;2024-02-26T08:46:42;29.48;;;16.23;;
26951;SDS011;14507;52.418;13.398;2024-02-26T08:49:08;28.70;;;15.05;;
26951;SDS011;14507;52.418;13.398;2024-02-26T08:51:33;26.50;;;14.43;;
26951;SDS011;14507;52.418;13.398;2024-02-26T08:53:59;24.30;;;13.52;;
26951;SDS011;14507;52.418;13.398;2024-02-26T08:56:24;26.58;;;14.52;;
26951;SDS011;14507;52.418;13.398;2024-02-26T08:58:50;27.38;;;13.68;;
26951;SDS011;14507;52.418;13.398;2024-02-26T09:03:44;24.80;;;13.85;;
26951;SDS011;14507;52.418;13.398;2024-02-26T09:06:09;23.75;;;13.65;;
26951;SDS011;14507;52.418;13.398;2024-02-26T09:08:36;22.98;;;14.00;;
26951;SDS011;14507;52.418;13.398;2024-02-26T09:11:02;28.77;;;14.95;;
26951;SDS011;14507;52.418;13.398;2024-02-26T09:13:28;29.15;;;14.95;;
26951;SDS011;14507;52.418;13.398;2024-02-26T09:15:54;28.83;;;15.25;;
26951;SDS011;14507;52.418;13.398;2024-02-26T09:18:20;29.05;;;15.38;;
26951;SDS011;14507;52.418;13.398;2024-02-26T09:20:46;28.73;;;15.73;;
26951;SDS011;14507;52.418;13.398;2024-02-26T09:23:11;29.85;;;15.93;;
26951;SDS011;14507;52.418;13.398;2024-02-26T09:25:37;31.80;;;16.00;;
26951;SDS011;14507;52.418;13.398;2024-02-26T09:28:03;27.40;;;14.60;;
26951;SDS011;14507;52.418;13.398;2024-02-26T09:30:29;27.55;;;15.23;;
26951;SDS011;14507;52.418;13.398;2024-02-26T09:32:54;24.85;;;14.57;;
26951;SDS011;14507;52.418;13.398;2024-02-26T09:35:20;29.45;;;14.63;;
26951;SDS011;14507;52.418;13.398;2024-02-26T09:37:46;26.15;;;14.73;;
26951;SDS011;14507;52.418;13.398;2024-02-26T09:40:13;24.75;;;14.20;;
26951;SDS011;14507;52.418;13.398;2024-02-26T09:42:42;24.75;;;15.18;;
26951;SDS011;14507;52.418;13.398;2024-02-26T09:45:11;27.73;;;14.77;;
26951;SDS011;14507;52.418;13.398;2024-02-26T09:47:43;26.35;;;14.18;;
26951;SDS011;14507;52.418;13.398;2024-02-26T09:50:10;25.30;;;15.07;;
26951;SDS011;14507;52.418;13.398;2024-02-26T09:52:38;26.08;;;15.30;;
26951;SDS011;14507;52.418;13.398;2024-02-26T09:55:07;28.77;;;15.93;;
26951;SDS011;14507;52.418;13.398;2024-02-26T09:57:34;28.45;;;16.15;;
26951;SDS011;14507;52.418;13.398;2024-02-26T10:00:02;30.85;;;16.23;;
26951;SDS011;14507;52.418;13.398;2024-02-26T10:02:33;26.08;;;15.05;;
26951;SDS011;14507;52.418;13.398;2024-02-26T10:05:02;25.92;;;15.40;;
26951;SDS011;14507;52.418;13.398;2024-02-26T10:07:31;27.95;;;14.15;;
26951;SDS011;14507;52.418;13.398;2024-02-26T10:09:57;25.17;;;13.70;;
26951;SDS011;14507;52.418;13.398;2024-02-26T10:12:23;29.17;;;13.90;;
26951;SDS011;14507;52.418;13.398;2024-02-26T10:14:51;25.67;;;13.43;;
26951;SDS011;14507;52.418;13.398;2024-02-26T10:17:17;24.33;;;12.65;;
26951;SDS011;14507;52.418;13.398;2024-02-26T10:22:10;26.38;;;12.57;;
26951;SDS011;14507;52.418;13.398;2024-02-26T10:24:36;22.30;;;12.10;;
26951;SDS011;14507;52.418;13.398;2024-02-26T10:27:02;20.63;;;11.80;;
26951;SDS011;14507;52.418;13.398;2024-02-26T10:29:28;21.35;;;12.15;;
26951;SDS011;14507;52.418;13.398;2024-02-26T10:31:53;20.38;;;11.27;;
26951;SDS011;14507;52.418;13.398;2024-02-26T10:34:19;23.58;;;11.77;;
26951;SDS011;14507;52.418;13.398;2024-02-26T10:36:45;17.65;;;9.82;;
26951;SDS011;14507;52.418;13.398;2024-02-26T10:39:14;23.83;;;10.88;;
26951;SDS011;14507;52.418;13.398;2024-02-26T10:41:43;20.25;;;10.77;;
26951;SDS011;14507;52.418;13.398;2024-02-26T10:44:10;18.98;;;10.73;;
26951;SDS011;14507;52.418;13.398;2024-02-26T10:46:37;21.17;;;10.57;;
26951;SDS011;14507;52.418;13.398;2024-02-26T10:49:03;21.58;;;9.50;;
26951;SDS011;14507;52.418;13.398;2024-02-26T10:51:31;19.15;;;10.05;;
26951;SDS011;14507;52.418;13.398;2024-02-26T10:54:01;17.38;;;9.30;;
26951;SDS011;14507;52.418;13.398;2024-02-26T10:56:33;22.30;;;9.70;;
26951;SDS011;14507;52.418;13.398;2024-02-26T10:58:59;16.02;;;9.27;;
26951;SDS011;14507;52.418;13.398;2024-02-26T11:01:27;18.58;;;9.88;;
26951;SDS011;14507;52.418;13.398;2024-02-26T11:03:56;16.77;;;9.65;;
26951;SDS011;14507;52.418;13.398;2024-02-26T11:06:23;15.43;;;9.38;;
26951;SDS011;14507;52.418;13.398;2024-02-26T11:08:51;19.38;;;9.38;;
26951;SDS011;14507;52.418;13.398;2024-02-26T11:11:18;17.75;;;9.35;;
26951;SDS011;14507;52.418;13.398;2024-02-26T11:13:45;15.45;;;9.60;;
26951;SDS011;14507;52.418;13.398;2024-02-26T11:16:16;16.02;;;8.60;;
26951;SDS011;14507;52.418;13.398;2024-02-26T11:18:43;16.38;;;8.93;;
26951;SDS011;14507;52.418;13.398;2024-02-26T11:21:13;19.35;;;9.23;;
26951;SDS011;14507;52.418;13.398;2024-02-26T11:23:41;17.40;;;9.30;;
26951;SDS011;14507;52.418;13.398;2024-02-26T11:26:07;18.15;;;9.05;;
26951;SDS011;14507;52.418;13.398;2024-02-26T11:31:02;15.00;;;8.00;;
26951;SDS011;14507;52.418;13.398;2024-02-26T11:33:29;15.77;;;7.83;;
26951;SDS011;14507;52.418;13.398;2024-02-26T11:35:56;13.98;;;8.00;;
26951;SDS011;14507;52.418;13.398;2024-02-26T11:38:22;14.48;;;7.65;;
26951;SDS011;14507;52.418;13.398;2024-02-26T11:40:50;12.40;;;7.20;;
26951;SDS011;14507;52.418;13.398;2024-02-26T11:43:16;14.70;;;7.28;;
26951;SDS011;14507;52.418;13.398;2024-02-26T11:48:11;11.77;;;7.18;;
26951;SDS011;14507;52.418;13.398;2024-02-26T11:50:41;15.43;;;7.93;;
26951;SDS011;14507;52.418;13.398;2024-02-26T11:58:43;16.25;;;8.00;;
26951;SDS011;14507;52.418;13.398;2024-02-26T12:04:21;15.43;;;7.68;;
26951;SDS011;14507;52.418;13.398;2024-02-26T12:12:01;11.50;;;6.82;;
26951;SDS011;14507;52.418;13.398;2024-02-26T12:14:27;13.43;;;6.47;;
26951;SDS011;14507;52.418;13.398;2024-02-26T12:16:55;13.38;;;6.70;;
26951;SDS011;14507;52.418;13.398;2024-02-26T12:19:21;12.88;;;6.80;;
26951;SDS011;14507;52.418;13.398;2024-02-26T12:21:50;13.07;;;5.82;;
26951;SDS011;14507;52.418;13.398;2024-02-26T12:24:17;15.73;;;6.35;;
26951;SDS011;14507;52.418;13.398;2024-02-26T12:26:44;14.20;;;5.63;;
26951;SDS011;14507;52.418;13.398;2024-02-26T12:29:10;11.00;;;5.40;;
26951;SDS011;14507;52.418;13.398;2024-02-26T12:31:36;11.40;;;6.03;;
26951;SDS011;14507;52.418;13.398;2024-02-26T12:34:04;12.82;;;7.28;;
26951;SDS011;14507;52.418;13.398;2024-02-26T12:36:30;11.93;;;7.32;;
26951;SDS011;14507;52.418;13.398;2024-02-26T12:38:56;11.80;;;6.78;;
26951;SDS011;14507;52.418;13.398;2024-02-26T12:41:25;18.27;;;7.47;;
26951;SDS011;14507;52.418;13.398;2024-02-26T12:43:52;13.43;;;6.95;;
26951;SDS011;14507;52.418;13.398;2024-02-26T12:46:18;13.57;;;6.82;;
26951;SDS011;14507;52.418;13.398;2024-02-26T12:48:45;10.65;;;5.28;;
26951;SDS011;14507;52.418;13.398;2024-02-26T12:51:12;8.93;;;4.53;;
26951;SDS011;14507;52.418;13.398;2024-02-26T12:53:39;11.60;;;4.57;;
26951;SDS011;14507;52.418;13.398;2024-02-26T12:56:06;8.30;;;4.28;;
26951;SDS011;14507;52.418;13.398;2024-02-26T12:58:34;7.60;;;4.38;;
26951;SDS011;14507;52.418;13.398;2024-02-26T13:01:03;6.22;;;3.47;;
26951;SDS011;14507;52.418;13.398;2024-02-26T13:03:29;6.05;;;3.72;;
26951;SDS011;14507;52.418;13.398;2024-02-26T13:05:55;7.20;;;3.53;;
26951;SDS011;14507;52.418;13.398;2024-02-26T13:08:21;7.63;;;3.25;;
26951;SDS011;14507;52.418;13.398;2024-02-26T13:13:24;8.50;;;2.97;;
26951;SDS011;14507;52.418;13.398;2024-02-26T13:15:50;6.60;;;3.42;;
26951;SDS011;14507;52.418;13.398;2024-02-26T13:18:31;5.15;;;2.97;;
26951;SDS011;14507;52.418;13.398;2024-02-26T13:23:43;7.00;;;2.95;;
26951;SDS011;14507;52.418;13.398;2024-02-26T13:26:13;7.85;;;3.35;;
26951;SDS011;14507;52.418;13.398;2024-02-26T13:28:39;7.45;;;3.45;;
26951;SDS011;14507;52.418;13.398;2024-02-26T13:31:05;9.40;;;4.13;;
26951;SDS011;14507;52.418;13.398;2024-02-26T13:33:32;7.88;;;3.78;;
26951;SDS011;14507;52.418;13.398;2024-02-26T13:35:59;8.20;;;4.28;;
26951;SDS011;14507;52.418;13.398;2024-02-26T13:38:25;9.60;;;4.18;;
26951;SDS011;14507;52.418;13.398;2024-02-26T13:40:52;8.50;;;4.38;;
26951;SDS011;14507;52.418;13.398;2024-02-26T13:43:21;9.23;;;4.07;;
26951;SDS011;14507;52.418;13.398;2024-02-26T13:45:47;8.98;;;4.57;;
26951;SDS011;14507;52.418;13.398;2024-02-26T13:48:13;8.93;;;3.88;;
26951;SDS011;14507;52.418;13.398;2024-02-26T13:54:01;9.23;;;4.55;;
26951;SDS011;14507;52.418;13.398;2024-02-26T13:56:27;13.45;;;5.15;;
26951;SDS011;14507;52.418;13.398;2024-02-26T13:58:53;9.45;;;4.47;;
26951;SDS011;14507;52.418;13.398;2024-02-26T14:01:18;9.55;;;4.95;;
26951;SDS011;14507;52.418;13.398;2024-02-26T14:03:44;11.95;;;4.68;;
26951;SDS011;14507;52.418;13.398;2024-02-26T14:06:10;10.55;;;5.00;;
26951;SDS011;14507;52.418;13.398;2024-02-26T14:08:36;11.35;;;5.25;;
26951;SDS011;14507;52.418;13.398;2024-02-26T14:11:02;11.20;;;5.03;;
26951;SDS011;14507;52.418;13.398;2024-02-26T14:13:28;8.05;;;4.57;;
26951;SDS011;14507;52.418;13.398;2024-02-26T14:15:53;9.40;;;4.72;;
26951;SDS011;14507;52.418;13.398;2024-02-26T14:18:19;12.88;;;5.07;;
26951;SDS011;14507;52.418;13.398;2024-02-26T14:20:45;10.05;;;4.88;;
26951;SDS011;14507;52.418;13.398;2024-02-26T14:23:10;9.50;;;4.90;;
26951;SDS011;14507;52.418;13.398;2024-02-26T14:25:36;8.57;;;4.45;;
26951;SDS011;14507;52.418;13.398;2024-02-26T14:28:02;11.70;;;5.15;;
26951;SDS011;14507;52.418;13.398;2024-02-26T14:30:28;12.15;;;5.03;;
26951;SDS011;14507;52.418;13.398;2024-02-26T14:32:54;12.82;;;5.15;;
26951;SDS011;14507;52.418;13.398;2024-02-26T14:35:20;12.13;;;6.28;;
26951;SDS011;14507;52.418;13.398;2024-02-26T14:37:46;13.15;;;5.65;;
26951;SDS011;14507;52.418;13.398;2024-02-26T14:40:12;14.80;;;5.60;;
26951;SDS011;14507;52.418;13.398;2024-02-26T14:42:39;9.85;;;5.88;;
26951;SDS011;14507;52.418;13.398;2024-02-26T14:45:05;9.70;;;5.43;;
26951;SDS011;14507;52.418;13.398;2024-02-26T14:47:33;10.77;;;5.63;;